sensor_id;sensor_type;location;lat;lon;timestamp;temperature;humidity
52189;DHT22;38162;45.926;13.608;2023-09-19T00:00:46;22.40;99.90
52189;DHT22;38162;45.926;13.608;2023-09-19T00:03:15;22.40;99.90
52189;DHT22;38162;45.926;13.608;2023-09-19T00:05:41;22.40;99.90
52189;DHT22;38162;45.926;13.608;2023-09-19T00:08:09;22.40;99.90
52189;DHT22;38162;45.926;13.608;2023-09-19T00:10:35;22.40;99.90
52189;DHT22;38162;45.926;13.608;2023-09-19T00:13:02;22.40;99.90
52189;DHT22;38162;45.926;13.608;2023-09-19T00:15:40;22.40;99.90
52189;DHT22;38162;45.926;13.608;2023-09-19T00:18:06;22.40;99.90
52189;DHT22;38162;45.926;13.608;2023-09-19T00:20:35;22.40;99.90
52189;DHT22;38162;45.926;13.608;2023-09-19T00:23:00;22.40;99.90
52189;DHT22;38162;45.926;13.608;2023-09-19T00:25:35;22.40;99.90
52189;DHT22;38162;45.926;13.608;2023-09-19T00:28:01;22.40;99.90
52189;DHT22;38162;45.926;13.608;2023-09-19T00:30:27;22.40;99.90
52189;DHT22;38162;45.926;13.608;2023-09-19T00:32:53;22.40;99.90
52189;DHT22;38162;45.926;13.608;2023-09-19T00:35:23;22.40;99.90
52189;DHT22;38162;45.926;13.608;2023-09-19T00:37:53;22.40;99.90
52189;DHT22;38162;45.926;13.608;2023-09-19T00:40:19;22.40;99.90
52189;DHT22;38162;45.926;13.608;2023-09-19T00:42:48;22.40;99.90
52189;DHT22;38162;45.926;13.608;2023-09-19T00:45:15;22.40;99.90
52189;DHT22;38162;45.926;13.608;2023-09-19T00:47:45;22.40;99.90
52189;DHT22;38162;45.926;13.608;2023-09-19T00:50:13;22.40;99.90
52189;DHT22;38162;45.926;13.608;2023-09-19T00:52:40;22.40;99.90
52189;DHT22;38162;45.926;13.608;2023-09-19T00:55:11;22.40;99.90
52189;DHT22;38162;45.926;13.608;2023-09-19T00:57:39;22.40;99.90
52189;DHT22;38162;45.926;13.608;2023-09-19T01:00:09;22.40;99.90
52189;DHT22;38162;45.926;13.608;2023-09-19T01:02:43;22.40;99.90
52189;DHT22;38162;45.926;13.608;2023-09-19T01:05:10;22.40;99.90
52189;DHT22;38162;45.926;13.608;2023-09-19T01:07:38;22.40;99.90
52189;DHT22;38162;45.926;13.608;2023-09-19T01:10:09;22.40;99.90
52189;DHT22;38162;45.926;13.608;2023-09-19T01:12:58;22.40;99.90
52189;DHT22;38162;45.926;13.608;2023-09-19T01:28:53;22.40;99.90
52189;DHT22;38162;45.926;13.608;2023-09-19T01:31:23;22.40;99.90
52189;DHT22;38162;45.926;13.608;2023-09-19T01:34:00;22.40;99.90
52189;DHT22;38162;45.926;13.608;2023-09-19T01:36:37;22.40;99.90
52189;DHT22;38162;45.926;13.608;2023-09-19T01:39:13;22.40;99.90
52189;DHT22;38162;45.926;13.608;2023-09-19T01:42:03;22.40;99.90
52189;DHT22;38162;45.926;13.608;2023-09-19T01:47:54;22.40;99.90
52189;DHT22;38162;45.926;13.608;2023-09-19T01:52:42;22.40;99.90
52189;DHT22;38162;45.926;13.608;2023-09-19T01:55:11;22.40;99.90
52189;DHT22;38162;45.926;13.608;2023-09-19T01:57:58;22.40;99.90
52189;DHT22;38162;45.926;13.608;2023-09-19T02:00:27;22.40;99.90
52189;DHT22;38162;45.926;13.608;2023-09-19T02:02:56;22.40;99.90
52189;DHT22;38162;45.926;13.608;2023-09-19T02:05:24;22.40;99.90
52189;DHT22;38162;45.926;13.608;2023-09-19T02:07:51;22.40;99.90
52189;DHT22;38162;45.926;13.608;2023-09-19T02:10:18;22.40;99.90
52189;DHT22;38162;45.926;13.608;2023-09-19T02:12:44;22.40;99.90
52189;DHT22;38162;45.926;13.608;2023-09-19T02:15:10;22.40;99.90
52189;DHT22;38162;45.926;13.608;2023-09-19T02:17:36;22.40;99.90
52189;DHT22;38162;45.926;13.608;2023-09-19T02:20:02;22.40;99.90
52189;DHT22;38162;45.926;13.608;2023-09-19T02:22:29;22.40;99.90
52189;DHT22;38162;45.926;13.608;2023-09-19T02:24:55;22.40;99.90
52189;DHT22;38162;45.926;13.608;2023-09-19T02:27:24;22.40;99.90
52189;DHT22;38162;45.926;13.608;2023-09-19T02:29:49;22.40;99.90
52189;DHT22;38162;45.926;13.608;2023-09-19T02:32:15;22.40;99.90
52189;DHT22;38162;45.926;13.608;2023-09-19T02:34:43;22.40;99.90
52189;DHT22;38162;45.926;13.608;2023-09-19T02:37:10;22.40;99.90
52189;DHT22;38162;45.926;13.608;2023-09-19T02:39:36;22.40;99.90
52189;DHT22;38162;45.926;13.608;2023-09-19T02:42:02;22.40;99.90
52189;DHT22;38162;45.926;13.608;2023-09-19T02:44:30;22.40;99.90
52189;DHT22;38162;45.926;13.608;2023-09-19T02:46:55;22.40;99.90
52189;DHT22;38162;45.926;13.608;2023-09-19T02:49:23;22.40;99.90
52189;DHT22;38162;45.926;13.608;2023-09-19T02:51:49;22.40;99.90
52189;DHT22;38162;45.926;13.608;2023-09-19T02:54:14;22.40;99.90
52189;DHT22;38162;45.926;13.608;2023-09-19T02:56:43;22.40;99.90
52189;DHT22;38162;45.926;13.608;2023-09-19T02:59:09;22.40;99.90
52189;DHT22;38162;45.926;13.608;2023-09-19T03:01:37;22.40;99.90
52189;DHT22;38162;45.926;13.608;2023-09-19T03:04:04;22.40;99.90
52189;DHT22;38162;45.926;13.608;2023-09-19T03:06:31;22.40;99.90
52189;DHT22;38162;45.926;13.608;2023-09-19T03:08:58;22.30;99.90
52189;DHT22;38162;45.926;13.608;2023-09-19T03:11:25;22.30;99.90
52189;DHT22;38162;45.926;13.608;2023-09-19T03:13:54;22.30;99.90
52189;DHT22;38162;45.926;13.608;2023-09-19T03:16:20;22.30;99.90
52189;DHT22;38162;45.926;13.608;2023-09-19T03:18:48;22.30;99.90
52189;DHT22;38162;45.926;13.608;2023-09-19T03:21:15;22.30;99.90
52189;DHT22;38162;45.926;13.608;2023-09-19T03:23:42;22.30;99.90
52189;DHT22;38162;45.926;13.608;2023-09-19T03:26:10;22.30;99.90
52189;DHT22;38162;45.926;13.608;2023-09-19T03:28:35;22.20;99.90
52189;DHT22;38162;45.926;13.608;2023-09-19T03:31:04;22.20;99.90
52189;DHT22;38162;45.926;13.608;2023-09-19T03:33:30;22.20;99.90
52189;DHT22;38162;45.926;13.608;2023-09-19T03:36:00;22.20;99.90
52189;DHT22;38162;45.926;13.608;2023-09-19T03:38:27;22.20;99.90
52189;DHT22;38162;45.926;13.608;2023-09-19T03:40:53;22.20;99.90
52189;DHT22;38162;45.926;13.608;2023-09-19T03:43:19;22.20;99.90
52189;DHT22;38162;45.926;13.608;2023-09-19T03:45:45;22.20;99.90
52189;DHT22;38162;45.926;13.608;2023-09-19T03:48:12;22.20;99.90
52189;DHT22;38162;45.926;13.608;2023-09-19T03:50:38;22.10;99.90
52189;DHT22;38162;45.926;13.608;2023-09-19T03:53:04;22.10;99.90
52189;DHT22;38162;45.926;13.608;2023-09-19T03:55:32;22.10;99.90
52189;DHT22;38162;45.926;13.608;2023-09-19T03:58:01;22.10;99.90
52189;DHT22;38162;45.926;13.608;2023-09-19T04:00:26;22.10;99.90
52189;DHT22;38162;45.926;13.608;2023-09-19T04:02:53;22.10;99.90
52189;DHT22;38162;45.926;13.608;2023-09-19T04:05:19;22.10;99.90
52189;DHT22;38162;45.926;13.608;2023-09-19T04:07:45;22.10;99.90
52189;DHT22;38162;45.926;13.608;2023-09-19T04:10:10;22.00;99.90
52189;DHT22;38162;45.926;13.608;2023-09-19T04:12:40;22.10;99.90
52189;DHT22;38162;45.926;13.608;2023-09-19T04:15:07;22.00;99.90
52189;DHT22;38162;45.926;13.608;2023-09-19T04:17:33;22.00;99.90
52189;DHT22;38162;45.926;13.608;2023-09-19T04:19:59;22.00;99.90
52189;DHT22;38162;45.926;13.608;2023-09-19T04:22:25;22.00;99.90
52189;DHT22;38162;45.926;13.608;2023-09-19T04:24:51;22.00;99.90
52189;DHT22;38162;45.926;13.608;2023-09-19T04:27:17;22.00;99.90
52189;DHT22;38162;45.926;13.608;2023-09-19T04:29:44;22.00;99.90
52189;DHT22;38162;45.926;13.608;2023-09-19T04:32:10;22.00;99.90
52189;DHT22;38162;45.926;13.608;2023-09-19T04:34:36;22.00;99.90
52189;DHT22;38162;45.926;13.608;2023-09-19T04:37:03;22.00;99.90
52189;DHT22;38162;45.926;13.608;2023-09-19T04:39:29;22.00;99.90
52189;DHT22;38162;45.926;13.608;2023-09-19T04:41:55;22.00;99.90
52189;DHT22;38162;45.926;13.608;2023-09-19T04:44:21;22.00;99.90
52189;DHT22;38162;45.926;13.608;2023-09-19T04:46:47;22.00;99.90
52189;DHT22;38162;45.926;13.608;2023-09-19T04:49:13;22.00;99.90
52189;DHT22;38162;45.926;13.608;2023-09-19T04:51:39;22.00;99.90
52189;DHT22;38162;45.926;13.608;2023-09-19T04:54:05;22.00;99.90
52189;DHT22;38162;45.926;13.608;2023-09-19T04:56:32;22.00;99.90
52189;DHT22;38162;45.926;13.608;2023-09-19T04:58:58;22.00;99.90
52189;DHT22;38162;45.926;13.608;2023-09-19T05:01:24;22.00;99.90
52189;DHT22;38162;45.926;13.608;2023-09-19T05:03:50;21.90;99.90
52189;DHT22;38162;45.926;13.608;2023-09-19T05:06:21;21.90;99.90
52189;DHT22;38162;45.926;13.608;2023-09-19T05:08:47;21.90;99.90
52189;DHT22;38162;45.926;13.608;2023-09-19T05:11:20;21.90;99.90
52189;DHT22;38162;45.926;13.608;2023-09-19T05:13:47;21.90;99.90
52189;DHT22;38162;45.926;13.608;2023-09-19T05:16:13;21.90;99.90
52189;DHT22;38162;45.926;13.608;2023-09-19T05:18:39;21.90;99.90
52189;DHT22;38162;45.926;13.608;2023-09-19T05:21:05;21.90;99.90
52189;DHT22;38162;45.926;13.608;2023-09-19T05:23:31;21.90;99.90
52189;DHT22;38162;45.926;13.608;2023-09-19T05:25:56;21.90;99.90
52189;DHT22;38162;45.926;13.608;2023-09-19T05:28:28;21.90;99.90
52189;DHT22;38162;45.926;13.608;2023-09-19T05:31:02;21.90;99.90
52189;DHT22;38162;45.926;13.608;2023-09-19T05:33:28;21.90;99.90
52189;DHT22;38162;45.926;13.608;2023-09-19T05:35:55;21.90;99.90
52189;DHT22;38162;45.926;13.608;2023-09-19T05:38:21;21.90;99.90
52189;DHT22;38162;45.926;13.608;2023-09-19T05:40:48;21.90;99.90
52189;DHT22;38162;45.926;13.608;2023-09-19T05:43:13;21.90;99.90
52189;DHT22;38162;45.926;13.608;2023-09-19T05:45:42;21.90;99.90
52189;DHT22;38162;45.926;13.608;2023-09-19T05:48:13;21.90;99.90
52189;DHT22;38162;45.926;13.608;2023-09-19T05:50:39;21.90;99.90
52189;DHT22;38162;45.926;13.608;2023-09-19T05:53:05;21.90;99.90
52189;DHT22;38162;45.926;13.608;2023-09-19T05:55:32;21.90;99.90
52189;DHT22;38162;45.926;13.608;2023-09-19T05:57:58;21.90;99.90
52189;DHT22;38162;45.926;13.608;2023-09-19T06:00:24;21.90;99.90
52189;DHT22;38162;45.926;13.608;2023-09-19T06:02:55;21.90;99.90
52189;DHT22;38162;45.926;13.608;2023-09-19T06:05:23;21.90;99.90
52189;DHT22;38162;45.926;13.608;2023-09-19T06:07:49;22.00;99.90
52189;DHT22;38162;45.926;13.608;2023-09-19T06:10:15;22.00;99.90
52189;DHT22;38162;45.926;13.608;2023-09-19T06:12:43;22.00;99.90
52189;DHT22;38162;45.926;13.608;2023-09-19T06:15:13;22.00;99.90
52189;DHT22;38162;45.926;13.608;2023-09-19T06:17:47;22.10;99.90
52189;DHT22;38162;45.926;13.608;2023-09-19T06:20:13;22.10;99.90
52189;DHT22;38162;45.926;13.608;2023-09-19T06:22:41;22.10;99.90
52189;DHT22;38162;45.926;13.608;2023-09-19T06:25:08;22.10;99.90
52189;DHT22;38162;45.926;13.608;2023-09-19T06:27:39;22.10;99.90
52189;DHT22;38162;45.926;13.608;2023-09-19T06:30:09;22.20;99.90
52189;DHT22;38162;45.926;13.608;2023-09-19T06:32:35;22.20;99.90
52189;DHT22;38162;45.926;13.608;2023-09-19T06:35:01;22.30;99.90
52189;DHT22;38162;45.926;13.608;2023-09-19T06:37:29;22.30;99.90
52189;DHT22;38162;45.926;13.608;2023-09-19T06:39:54;22.40;99.90
52189;DHT22;38162;45.926;13.608;2023-09-19T06:42:20;22.40;99.90
52189;DHT22;38162;45.926;13.608;2023-09-19T06:44:48;22.40;99.90
52189;DHT22;38162;45.926;13.608;2023-09-19T06:47:14;22.40;99.90
52189;DHT22;38162;45.926;13.608;2023-09-19T06:49:41;22.50;99.90
52189;DHT22;38162;45.926;13.608;2023-09-19T06:52:10;22.50;99.90
52189;DHT22;38162;45.926;13.608;2023-09-19T06:54:35;22.60;99.90
52189;DHT22;38162;45.926;13.608;2023-09-19T06:57:01;22.60;99.90
52189;DHT22;38162;45.926;13.608;2023-09-19T06:59:27;22.70;99.90
52189;DHT22;38162;45.926;13.608;2023-09-19T07:01:53;22.70;99.90
52189;DHT22;38162;45.926;13.608;2023-09-19T07:04:19;22.80;99.90
52189;DHT22;38162;45.926;13.608;2023-09-19T07:06:50;22.80;99.90
52189;DHT22;38162;45.926;13.608;2023-09-19T07:09:16;22.80;99.90
52189;DHT22;38162;45.926;13.608;2023-09-19T07:11:42;22.90;99.90
52189;DHT22;38162;45.926;13.608;2023-09-19T07:14:08;23.00;99.90
52189;DHT22;38162;45.926;13.608;2023-09-19T07:16:37;23.00;99.90
52189;DHT22;38162;45.926;13.608;2023-09-19T07:19:04;23.10;99.90
52189;DHT22;38162;45.926;13.608;2023-09-19T07:21:30;23.10;99.90
52189;DHT22;38162;45.926;13.608;2023-09-19T07:23:59;23.20;99.90
52189;DHT22;38162;45.926;13.608;2023-09-19T07:26:26;23.20;99.90
52189;DHT22;38162;45.926;13.608;2023-09-19T07:28:53;23.30;99.90
52189;DHT22;38162;45.926;13.608;2023-09-19T07:31:19;23.40;99.90
52189;DHT22;38162;45.926;13.608;2023-09-19T07:33:45;23.40;99.90
52189;DHT22;38162;45.926;13.608;2023-09-19T07:36:11;23.50;99.90
52189;DHT22;38162;45.926;13.608;2023-09-19T07:38:41;23.60;99.90
52189;DHT22;38162;45.926;13.608;2023-09-19T07:41:08;23.60;99.90
52189;DHT22;38162;45.926;13.608;2023-09-19T07:43:35;23.70;99.90
52189;DHT22;38162;45.926;13.608;2023-09-19T07:46:05;23.70;99.90
52189;DHT22;38162;45.926;13.608;2023-09-19T07:48:33;23.70;99.90
52189;DHT22;38162;45.926;13.608;2023-09-19T07:51:06;23.80;99.90
52189;DHT22;38162;45.926;13.608;2023-09-19T07:53:33;23.90;99.90
52189;DHT22;38162;45.926;13.608;2023-09-19T07:56:06;23.90;99.90
52189;DHT22;38162;45.926;13.608;2023-09-19T07:58:33;23.90;99.90
52189;DHT22;38162;45.926;13.608;2023-09-19T08:01:09;23.90;99.90
52189;DHT22;38162;45.926;13.608;2023-09-19T08:03:36;23.90;99.90
52189;DHT22;38162;45.926;13.608;2023-09-19T08:06:07;23.90;99.90
52189;DHT22;38162;45.926;13.608;2023-09-19T08:08:34;23.90;99.90
52189;DHT22;38162;45.926;13.608;2023-09-19T08:11:03;23.90;99.90
52189;DHT22;38162;45.926;13.608;2023-09-19T08:13:36;23.90;99.80
52189;DHT22;38162;45.926;13.608;2023-09-19T08:16:04;23.90;99.80
52189;DHT22;38162;45.926;13.608;2023-09-19T08:18:30;23.80;99.80
52189;DHT22;38162;45.926;13.608;2023-09-19T08:20:56;23.80;99.80
52189;DHT22;38162;45.926;13.608;2023-09-19T08:23:24;23.70;99.80
52189;DHT22;38162;45.926;13.608;2023-09-19T08:25:50;23.70;99.90
52189;DHT22;38162;45.926;13.608;2023-09-19T08:28:21;23.70;99.90
52189;DHT22;38162;45.926;13.608;2023-09-19T08:30:50;23.60;99.90
52189;DHT22;38162;45.926;13.608;2023-09-19T08:33:16;23.60;99.90
52189;DHT22;38162;45.926;13.608;2023-09-19T08:35:42;23.50;99.90
52189;DHT22;38162;45.926;13.608;2023-09-19T08:38:08;23.40;99.90
52189;DHT22;38162;45.926;13.608;2023-09-19T08:40:38;23.40;99.90
52189;DHT22;38162;45.926;13.608;2023-09-19T08:43:06;23.30;99.90
52189;DHT22;38162;45.926;13.608;2023-09-19T08:45:34;23.30;99.90
52189;DHT22;38162;45.926;13.608;2023-09-19T08:50:42;23.30;99.90
52189;DHT22;38162;45.926;13.608;2023-09-19T08:53:11;23.20;99.90
52189;DHT22;38162;45.926;13.608;2023-09-19T08:55:40;23.20;99.90
52189;DHT22;38162;45.926;13.608;2023-09-19T08:58:10;23.20;99.90
52189;DHT22;38162;45.926;13.608;2023-09-19T09:00:36;23.20;99.90
52189;DHT22;38162;45.926;13.608;2023-09-19T09:03:03;23.20;99.90
52189;DHT22;38162;45.926;13.608;2023-09-19T09:05:32;23.20;99.90
52189;DHT22;38162;45.926;13.608;2023-09-19T09:08:00;23.20;99.90
52189;DHT22;38162;45.926;13.608;2023-09-19T09:10:28;23.20;99.90
52189;DHT22;38162;45.926;13.608;2023-09-19T09:12:54;23.20;99.90
52189;DHT22;38162;45.926;13.608;2023-09-19T09:15:23;23.20;99.90
52189;DHT22;38162;45.926;13.608;2023-09-19T09:17:50;23.20;99.90
52189;DHT22;38162;45.926;13.608;2023-09-19T09:20:17;23.20;99.90
52189;DHT22;38162;45.926;13.608;2023-09-19T09:22:54;23.10;99.90
52189;DHT22;38162;45.926;13.608;2023-09-19T09:25:20;23.10;99.90
52189;DHT22;38162;45.926;13.608;2023-09-19T09:28:02;23.00;99.60
52189;DHT22;38162;45.926;13.608;2023-09-19T09:30:37;23.00;99.20
52189;DHT22;38162;45.926;13.608;2023-09-19T09:33:10;22.90;98.90
52189;DHT22;38162;45.926;13.608;2023-09-19T09:35:37;22.80;98.40
52189;DHT22;38162;45.926;13.608;2023-09-19T09:38:12;22.80;97.70
52189;DHT22;38162;45.926;13.608;2023-09-19T09:40:49;22.70;97.40
52189;DHT22;38162;45.926;13.608;2023-09-19T09:43:41;22.60;97.10
52189;DHT22;38162;45.926;13.608;2023-09-19T09:49:01;22.30;96.90
52189;DHT22;38162;45.926;13.608;2023-09-19T09:52:03;22.20;97.00
52189;DHT22;38162;45.926;13.608;2023-09-19T09:54:34;22.00;97.20
52189;DHT22;38162;45.926;13.608;2023-09-19T09:57:07;22.00;96.60
52189;DHT22;38162;45.926;13.608;2023-09-19T09:59:53;21.90;96.30
52189;DHT22;38162;45.926;13.608;2023-09-19T10:02:29;21.90;96.60
52189;DHT22;38162;45.926;13.608;2023-09-19T10:04:58;21.80;96.70
52189;DHT22;38162;45.926;13.608;2023-09-19T10:07:33;21.70;96.60
52189;DHT22;38162;45.926;13.608;2023-09-19T10:10:03;21.70;96.70
52189;DHT22;38162;45.926;13.608;2023-09-19T10:12:46;21.70;96.90
52189;DHT22;38162;45.926;13.608;2023-09-19T10:15:14;21.70;97.00
52189;DHT22;38162;45.926;13.608;2023-09-19T10:17:45;21.70;96.70
52189;DHT22;38162;45.926;13.608;2023-09-19T10:20:17;21.60;96.60
52189;DHT22;38162;45.926;13.608;2023-09-19T10:23:11;21.60;96.80
52189;DHT22;38162;45.926;13.608;2023-09-19T10:25:44;21.60;96.80
52189;DHT22;38162;45.926;13.608;2023-09-19T10:28:13;21.60;96.80
52189;DHT22;38162;45.926;13.608;2023-09-19T10:30:46;21.70;96.90
52189;DHT22;38162;45.926;13.608;2023-09-19T10:33:20;21.70;97.00
52189;DHT22;38162;45.926;13.608;2023-09-19T10:35:48;21.80;96.40
52189;DHT22;38162;45.926;13.608;2023-09-19T10:38:17;21.90;95.70
52189;DHT22;38162;45.926;13.608;2023-09-19T10:40:50;22.00;95.80
52189;DHT22;38162;45.926;13.608;2023-09-19T10:43:17;22.10;95.30
52189;DHT22;38162;45.926;13.608;2023-09-19T10:45:49;22.10;95.30
52189;DHT22;38162;45.926;13.608;2023-09-19T10:48:18;22.20;95.30
52189;DHT22;38162;45.926;13.608;2023-09-19T10:51:02;22.30;94.70
52189;DHT22;38162;45.926;13.608;2023-09-19T10:53:49;22.30;94.20
52189;DHT22;38162;45.926;13.608;2023-09-19T10:56:21;22.40;94.10
52189;DHT22;38162;45.926;13.608;2023-09-19T10:58:48;22.40;94.20
52189;DHT22;38162;45.926;13.608;2023-09-19T11:01:14;22.50;94.10
52189;DHT22;38162;45.926;13.608;2023-09-19T11:03:41;22.60;94.40
52189;DHT22;38162;45.926;13.608;2023-09-19T11:06:17;22.70;94.30
52189;DHT22;38162;45.926;13.608;2023-09-19T11:11:51;22.70;93.40
52189;DHT22;38162;45.926;13.608;2023-09-19T11:30:44;22.80;91.90
52189;DHT22;38162;45.926;13.608;2023-09-19T11:33:16;22.80;92.00
52189;DHT22;38162;45.926;13.608;2023-09-19T11:36:16;22.80;92.30
52189;DHT22;38162;45.926;13.608;2023-09-19T11:46:34;23.50;92.10
52189;DHT22;38162;45.926;13.608;2023-09-19T11:49:17;23.70;91.90
52189;DHT22;38162;45.926;13.608;2023-09-19T11:51:50;23.80;91.60
52189;DHT22;38162;45.926;13.608;2023-09-19T11:54:20;24.00;90.70
52189;DHT22;38162;45.926;13.608;2023-09-19T11:56:50;24.10;88.40
52189;DHT22;38162;45.926;13.608;2023-09-19T12:01:52;24.30;89.20
52189;DHT22;38162;45.926;13.608;2023-09-19T12:04:39;24.40;89.20
52189;DHT22;38162;45.926;13.608;2023-09-19T12:07:09;24.50;88.70
52189;DHT22;38162;45.926;13.608;2023-09-19T12:09:46;24.60;88.50
52189;DHT22;38162;45.926;13.608;2023-09-19T12:12:23;24.70;87.90
52189;DHT22;38162;45.926;13.608;2023-09-19T12:14:50;24.70;86.80
52189;DHT22;38162;45.926;13.608;2023-09-19T12:17:18;24.70;85.50
52189;DHT22;38162;45.926;13.608;2023-09-19T12:19:52;24.70;85.40
52189;DHT22;38162;45.926;13.608;2023-09-19T12:22:18;24.70;85.20
52189;DHT22;38162;45.926;13.608;2023-09-19T12:24:46;24.70;85.90
52189;DHT22;38162;45.926;13.608;2023-09-19T12:27:12;24.70;86.50
52189;DHT22;38162;45.926;13.608;2023-09-19T12:29:46;24.70;86.20
52189;DHT22;38162;45.926;13.608;2023-09-19T12:32:14;24.70;85.50
52189;DHT22;38162;45.926;13.608;2023-09-19T12:34:42;24.70;85.40
52189;DHT22;38162;45.926;13.608;2023-09-19T12:37:14;24.70;85.80
52189;DHT22;38162;45.926;13.608;2023-09-19T12:39:50;24.70;86.20
52189;DHT22;38162;45.926;13.608;2023-09-19T12:42:21;24.70;85.80
52189;DHT22;38162;45.926;13.608;2023-09-19T12:44:51;24.70;86.20
52189;DHT22;38162;45.926;13.608;2023-09-19T12:47:27;24.60;86.10
52189;DHT22;38162;45.926;13.608;2023-09-19T12:50:09;24.60;85.90
52189;DHT22;38162;45.926;13.608;2023-09-19T12:52:40;24.50;83.90
52189;DHT22;38162;45.926;13.608;2023-09-19T12:55:06;24.50;82.80
52189;DHT22;38162;45.926;13.608;2023-09-19T12:57:36;24.50;82.40
52189;DHT22;38162;45.926;13.608;2023-09-19T13:00:03;24.50;81.70
52189;DHT22;38162;45.926;13.608;2023-09-19T13:02:31;24.50;81.80
52189;DHT22;38162;45.926;13.608;2023-09-19T13:04:58;24.50;81.50
52189;DHT22;38162;45.926;13.608;2023-09-19T13:07:45;24.60;81.10
52189;DHT22;38162;45.926;13.608;2023-09-19T13:10:13;24.60;80.10
52189;DHT22;38162;45.926;13.608;2023-09-19T13:12:42;24.60;79.70
52189;DHT22;38162;45.926;13.608;2023-09-19T13:15:13;24.60;80.00
52189;DHT22;38162;45.926;13.608;2023-09-19T13:17:46;24.70;79.40
52189;DHT22;38162;45.926;13.608;2023-09-19T13:20:26;24.70;79.10
52189;DHT22;38162;45.926;13.608;2023-09-19T13:22:57;24.70;77.90
52189;DHT22;38162;45.926;13.608;2023-09-19T13:25:33;24.80;76.40
52189;DHT22;38162;45.926;13.608;2023-09-19T13:28:00;24.90;76.40
52189;DHT22;38162;45.926;13.608;2023-09-19T13:30:30;24.90;77.00
52189;DHT22;38162;45.926;13.608;2023-09-19T13:33:10;24.90;76.70
52189;DHT22;38162;45.926;13.608;2023-09-19T13:35:37;25.00;75.00
52189;DHT22;38162;45.926;13.608;2023-09-19T13:38:05;25.00;75.70
52189;DHT22;38162;45.926;13.608;2023-09-19T13:40:32;25.10;76.30
52189;DHT22;38162;45.926;13.608;2023-09-19T13:43:01;25.10;75.80
52189;DHT22;38162;45.926;13.608;2023-09-19T13:45:26;25.10;76.10
52189;DHT22;38162;45.926;13.608;2023-09-19T13:47:56;25.10;76.50
52189;DHT22;38162;45.926;13.608;2023-09-19T13:50:21;25.10;74.50
52189;DHT22;38162;45.926;13.608;2023-09-19T13:52:51;25.10;74.50
52189;DHT22;38162;45.926;13.608;2023-09-19T13:55:17;25.20;73.90
52189;DHT22;38162;45.926;13.608;2023-09-19T13:57:46;25.20;72.80
52189;DHT22;38162;45.926;13.608;2023-09-19T14:00:15;25.10;72.90
52189;DHT22;38162;45.926;13.608;2023-09-19T14:02:42;25.20;73.90
52189;DHT22;38162;45.926;13.608;2023-09-19T14:05:12;25.20;73.20
52189;DHT22;38162;45.926;13.608;2023-09-19T14:07:41;25.20;73.10
52189;DHT22;38162;45.926;13.608;2023-09-19T14:10:07;25.10;72.80
52189;DHT22;38162;45.926;13.608;2023-09-19T14:12:34;25.10;73.00
52189;DHT22;38162;45.926;13.608;2023-09-19T14:15:00;25.10;73.10
52189;DHT22;38162;45.926;13.608;2023-09-19T14:17:26;25.10;74.30
52189;DHT22;38162;45.926;13.608;2023-09-19T14:19:52;25.10;74.00
52189;DHT22;38162;45.926;13.608;2023-09-19T14:22:18;25.20;74.30
52189;DHT22;38162;45.926;13.608;2023-09-19T14:24:44;25.20;74.20
52189;DHT22;38162;45.926;13.608;2023-09-19T14:27:09;25.20;73.50
52189;DHT22;38162;45.926;13.608;2023-09-19T14:29:36;25.20;73.80
52189;DHT22;38162;45.926;13.608;2023-09-19T14:32:01;25.10;74.70
52189;DHT22;38162;45.926;13.608;2023-09-19T14:34:27;25.10;74.60
52189;DHT22;38162;45.926;13.608;2023-09-19T14:36:53;25.10;74.80
52189;DHT22;38162;45.926;13.608;2023-09-19T14:39:22;25.00;75.00
52189;DHT22;38162;45.926;13.608;2023-09-19T14:41:48;25.00;75.80
52189;DHT22;38162;45.926;13.608;2023-09-19T14:44:14;25.00;75.90
52189;DHT22;38162;45.926;13.608;2023-09-19T14:46:41;24.90;76.10
52189;DHT22;38162;45.926;13.608;2023-09-19T14:49:09;24.90;76.30
52189;DHT22;38162;45.926;13.608;2023-09-19T14:51:37;24.90;76.40
52189;DHT22;38162;45.926;13.608;2023-09-19T14:54:03;24.80;77.00
52189;DHT22;38162;45.926;13.608;2023-09-19T14:56:29;24.80;77.50
52189;DHT22;38162;45.926;13.608;2023-09-19T14:58:56;24.80;77.90
52189;DHT22;38162;45.926;13.608;2023-09-19T15:01:22;24.80;78.00
52189;DHT22;38162;45.926;13.608;2023-09-19T15:03:48;24.80;78.50
52189;DHT22;38162;45.926;13.608;2023-09-19T15:06:15;24.90;78.70
52189;DHT22;38162;45.926;13.608;2023-09-19T15:08:43;24.90;78.70
52189;DHT22;38162;45.926;13.608;2023-09-19T15:11:19;24.90;78.70
52189;DHT22;38162;45.926;13.608;2023-09-19T15:13:47;24.90;77.50
52189;DHT22;38162;45.926;13.608;2023-09-19T15:16:13;24.90;77.70
52189;DHT22;38162;45.926;13.608;2023-09-19T15:18:44;25.00;77.50
52189;DHT22;38162;45.926;13.608;2023-09-19T15:21:13;25.00;78.00
52189;DHT22;38162;45.926;13.608;2023-09-19T15:23:41;25.00;78.20
52189;DHT22;38162;45.926;13.608;2023-09-19T15:26:09;25.00;78.00
52189;DHT22;38162;45.926;13.608;2023-09-19T15:28:35;25.00;76.90
52189;DHT22;38162;45.926;13.608;2023-09-19T15:31:11;25.00;77.00
52189;DHT22;38162;45.926;13.608;2023-09-19T15:33:37;25.00;76.80
52189;DHT22;38162;45.926;13.608;2023-09-19T15:38:57;25.10;76.70
52189;DHT22;38162;45.926;13.608;2023-09-19T15:41:24;25.00;76.70
52189;DHT22;38162;45.926;13.608;2023-09-19T15:43:50;25.10;76.70
52189;DHT22;38162;45.926;13.608;2023-09-19T15:46:15;25.10;76.70
52189;DHT22;38162;45.926;13.608;2023-09-19T15:48:42;25.10;77.10
52189;DHT22;38162;45.926;13.608;2023-09-19T15:51:08;25.00;77.10
52189;DHT22;38162;45.926;13.608;2023-09-19T15:53:57;25.10;77.00
52189;DHT22;38162;45.926;13.608;2023-09-19T15:56:25;25.00;77.20
52189;DHT22;38162;45.926;13.608;2023-09-19T15:58:52;25.00;77.60
52189;DHT22;38162;45.926;13.608;2023-09-19T16:01:19;25.00;78.00
52189;DHT22;38162;45.926;13.608;2023-09-19T16:03:50;25.00;78.50
52189;DHT22;38162;45.926;13.608;2023-09-19T16:06:22;25.00;78.60
52189;DHT22;38162;45.926;13.608;2023-09-19T16:08:51;25.00;78.70
52189;DHT22;38162;45.926;13.608;2023-09-19T16:11:17;25.00;79.50
52189;DHT22;38162;45.926;13.608;2023-09-19T16:13:44;25.00;79.80
52189;DHT22;38162;45.926;13.608;2023-09-19T16:16:12;24.90;79.60
52189;DHT22;38162;45.926;13.608;2023-09-19T16:18:48;24.90;79.90
52189;DHT22;38162;45.926;13.608;2023-09-19T16:21:14;24.90;80.20
52189;DHT22;38162;45.926;13.608;2023-09-19T16:23:40;24.90;80.40